sensor_id;sensor_type;location;lat;lon;timestamp;P1;durP1;ratioP1;P2;durP2;ratioP2
13425;SDS011;6785;57.918;12.530;2024-02-26T00:01:05;5.77;;;3.33;;
13425;SDS011;6785;57.918;12.530;2024-02-26T00:03:33;3.27;;;2.33;;
13425;SDS011;6785;57.918;12.530;2024-02-26T00:06:01;4.13;;;2.63;;
13425;SDS011;6785;57.918;12.530;2024-02-26T00:08:28;4.67;;;2.80;;
13425;SDS011;6785;57.918;12.530;2024-02-26T00:10:55;3.93;;;2.60;;
13425;SDS011;6785;57.918;12.530;2024-02-26T00:13:22;3.33;;;2.53;;
13425;SDS011;6785;57.918;12.530;2024-02-26T00:15:49;4.27;;;2.90;;
13425;SDS011;6785;57.918;12.530;2024-02-26T00:18:15;4.30;;;2.87;;
13425;SDS011;6785;57.918;12.530;2024-02-26T00:20:43;4.97;;;3.13;;
13425;SDS011;6785;57.918;12.530;2024-02-26T00:23:10;6.27;;;2.97;;
13425;SDS011;6785;57.918;12.530;2024-02-26T00:25:37;4.63;;;3.20;;
13425;SDS011;6785;57.918;12.530;2024-02-26T00:28:04;7.63;;;3.80;;
13425;SDS011;6785;57.918;12.530;2024-02-26T00:30:31;5.30;;;3.77;;
13425;SDS011;6785;57.918;12.530;2024-02-26T00:32:58;5.90;;;3.50;;
13425;SDS011;6785;57.918;12.530;2024-02-26T00:35:25;8.43;;;5.07;;
13425;SDS011;6785;57.918;12.530;2024-02-26T00:37:53;4.10;;;3.37;;
13425;SDS011;6785;57.918;12.530;2024-02-26T00:40:20;5.83;;;3.30;;
13425;SDS011;6785;57.918;12.530;2024-02-26T00:42:47;5.93;;;2.90;;
13425;SDS011;6785;57.918;12.530;2024-02-26T00:45:14;4.67;;;2.90;;
13425;SDS011;6785;57.918;12.530;2024-02-26T00:47:41;4.83;;;3.03;;
13425;SDS011;6785;57.918;12.530;2024-02-26T00:50:10;3.53;;;3.20;;
13425;SDS011;6785;57.918;12.530;2024-02-26T00:52:37;5.57;;;3.30;;
13425;SDS011;6785;57.918;12.530;2024-02-26T00:55:06;4.70;;;3.40;;
13425;SDS011;6785;57.918;12.530;2024-02-26T00:57:33;4.93;;;3.10;;
13425;SDS011;6785;57.918;12.530;2024-02-26T01:00:00;8.57;;;3.60;;
13425;SDS011;6785;57.918;12.530;2024-02-26T01:02:27;5.67;;;3.37;;
13425;SDS011;6785;57.918;12.530;2024-02-26T01:04:54;4.10;;;3.70;;
13425;SDS011;6785;57.918;12.530;2024-02-26T01:07:20;4.50;;;3.53;;
13425;SDS011;6785;57.918;12.530;2024-02-26T01:09:47;6.00;;;3.60;;
13425;SDS011;6785;57.918;12.530;2024-02-26T01:12:15;7.70;;;3.80;;
13425;SDS011;6785;57.918;12.530;2024-02-26T01:14:42;6.27;;;3.60;;
13425;SDS011;6785;57.918;12.530;2024-02-26T01:17:09;4.20;;;3.07;;
13425;SDS011;6785;57.918;12.530;2024-02-26T01:19:36;4.53;;;3.83;;
13425;SDS011;6785;57.918;12.530;2024-02-26T01:22:03;5.53;;;3.93;;
13425;SDS011;6785;57.918;12.530;2024-02-26T01:24:29;4.37;;;3.20;;
13425;SDS011;6785;57.918;12.530;2024-02-26T01:26:56;5.40;;;3.43;;
13425;SDS011;6785;57.918;12.530;2024-02-26T01:29:24;7.40;;;3.80;;
13425;SDS011;6785;57.918;12.530;2024-02-26T01:31:51;5.60;;;3.67;;
13425;SDS011;6785;57.918;12.530;2024-02-26T01:34:18;5.80;;;3.97;;
13425;SDS011;6785;57.918;12.530;2024-02-26T01:36:44;7.43;;;4.00;;
13425;SDS011;6785;57.918;12.530;2024-02-26T01:39:11;6.47;;;4.50;;
13425;SDS011;6785;57.918;12.530;2024-02-26T01:41:38;8.17;;;4.30;;
13425;SDS011;6785;57.918;12.530;2024-02-26T01:44:06;6.93;;;4.63;;
13425;SDS011;6785;57.918;12.530;2024-02-26T01:46:34;5.53;;;4.47;;
13425;SDS011;6785;57.918;12.530;2024-02-26T01:49:02;5.97;;;4.53;;
13425;SDS011;6785;57.918;12.530;2024-02-26T01:51:29;4.67;;;4.13;;
13425;SDS011;6785;57.918;12.530;2024-02-26T01:53:59;5.33;;;4.33;;
13425;SDS011;6785;57.918;12.530;2024-02-26T01:56:28;6.00;;;4.57;;
13425;SDS011;6785;57.918;12.530;2024-02-26T01:58:56;8.57;;;4.93;;
13425;SDS011;6785;57.918;12.530;2024-02-26T02:01:24;5.47;;;4.47;;
13425;SDS011;6785;57.918;12.530;2024-02-26T02:03:57;5.33;;;4.43;;
13425;SDS011;6785;57.918;12.530;2024-02-26T02:06:26;7.00;;;4.20;;
13425;SDS011;6785;57.918;12.530;2024-02-26T02:08:53;6.33;;;4.20;;
13425;SDS011;6785;57.918;12.530;2024-02-26T02:11:21;5.87;;;4.37;;
13425;SDS011;6785;57.918;12.530;2024-02-26T02:13:47;13.10;;;5.07;;
13425;SDS011;6785;57.918;12.530;2024-02-26T02:16:14;6.73;;;4.87;;
13425;SDS011;6785;57.918;12.530;2024-02-26T02:18:42;9.87;;;4.83;;
13425;SDS011;6785;57.918;12.530;2024-02-26T02:21:10;8.00;;;4.50;;
13425;SDS011;6785;57.918;12.530;2024-02-26T02:23:37;7.27;;;4.57;;
13425;SDS011;6785;57.918;12.530;2024-02-26T02:26:03;6.67;;;4.40;;
13425;SDS011;6785;57.918;12.530;2024-02-26T02:28:30;6.17;;;4.40;;
13425;SDS011;6785;57.918;12.530;2024-02-26T02:30:57;6.83;;;4.47;;
13425;SDS011;6785;57.918;12.530;2024-02-26T02:33:25;8.90;;;4.53;;
13425;SDS011;6785;57.918;12.530;2024-02-26T02:35:52;8.47;;;5.20;;
13425;SDS011;6785;57.918;12.530;2024-02-26T02:38:21;5.60;;;4.20;;
13425;SDS011;6785;57.918;12.530;2024-02-26T02:40:50;8.33;;;4.70;;
13425;SDS011;6785;57.918;12.530;2024-02-26T02:43:17;7.60;;;4.90;;
13425;SDS011;6785;57.918;12.530;2024-02-26T02:45:44;8.53;;;4.57;;
13425;SDS011;6785;57.918;12.530;2024-02-26T02:48:11;5.83;;;4.70;;
13425;SDS011;6785;57.918;12.530;2024-02-26T02:50:38;6.17;;;4.60;;
13425;SDS011;6785;57.918;12.530;2024-02-26T02:53:05;9.10;;;5.57;;
13425;SDS011;6785;57.918;12.530;2024-02-26T02:55:33;11.00;;;4.90;;
13425;SDS011;6785;57.918;12.530;2024-02-26T02:58:00;6.80;;;4.77;;
13425;SDS011;6785;57.918;12.530;2024-02-26T03:00:26;6.60;;;5.30;;
13425;SDS011;6785;57.918;12.530;2024-02-26T03:02:53;7.47;;;4.60;;
13425;SDS011;6785;57.918;12.530;2024-02-26T03:05:20;8.03;;;5.07;;
13425;SDS011;6785;57.918;12.530;2024-02-26T03:07:47;6.63;;;5.33;;
13425;SDS011;6785;57.918;12.530;2024-02-26T03:10:14;11.07;;;4.83;;
13425;SDS011;6785;57.918;12.530;2024-02-26T03:12:42;10.97;;;5.40;;
13425;SDS011;6785;57.918;12.530;2024-02-26T03:15:09;7.43;;;5.20;;
13425;SDS011;6785;57.918;12.530;2024-02-26T03:17:36;6.43;;;4.70;;
13425;SDS011;6785;57.918;12.530;2024-02-26T03:20:04;6.37;;;5.00;;
13425;SDS011;6785;57.918;12.530;2024-02-26T03:22:33;9.07;;;5.07;;
13425;SDS011;6785;57.918;12.530;2024-02-26T03:25:00;7.20;;;5.10;;
13425;SDS011;6785;57.918;12.530;2024-02-26T03:27:27;6.53;;;5.03;;
13425;SDS011;6785;57.918;12.530;2024-02-26T03:29:55;6.47;;;4.27;;
13425;SDS011;6785;57.918;12.530;2024-02-26T03:32:22;5.97;;;4.73;;
13425;SDS011;6785;57.918;12.530;2024-02-26T03:34:49;11.13;;;4.87;;
13425;SDS011;6785;57.918;12.530;2024-02-26T03:37:19;6.47;;;4.40;;
13425;SDS011;6785;57.918;12.530;2024-02-26T03:39:46;4.90;;;4.40;;
13425;SDS011;6785;57.918;12.530;2024-02-26T03:42:12;7.03;;;4.70;;
13425;SDS011;6785;57.918;12.530;2024-02-26T03:44:38;5.93;;;3.83;;
13425;SDS011;6785;57.918;12.530;2024-02-26T03:47:07;5.13;;;4.20;;
13425;SDS011;6785;57.918;12.530;2024-02-26T03:49:33;6.77;;;3.90;;
13425;SDS011;6785;57.918;12.530;2024-02-26T03:52:00;4.60;;;3.80;;
13425;SDS011;6785;57.918;12.530;2024-02-26T03:54:27;5.47;;;4.23;;
13425;SDS011;6785;57.918;12.530;2024-02-26T03:56:54;5.63;;;3.83;;
13425;SDS011;6785;57.918;12.530;2024-02-26T03:59:20;4.40;;;3.53;;
13425;SDS011;6785;57.918;12.530;2024-02-26T04:01:48;4.47;;;3.47;;
13425;SDS011;6785;57.918;12.530;2024-02-26T04:04:17;4.00;;;3.47;;
13425;SDS011;6785;57.918;12.530;2024-02-26T04:06:44;5.10;;;3.47;;
13425;SDS011;6785;57.918;12.530;2024-02-26T04:09:12;4.10;;;3.50;;
13425;SDS011;6785;57.918;12.530;2024-02-26T04:11:40;8.40;;;3.70;;
13425;SDS011;6785;57.918;12.530;2024-02-26T04:14:08;3.70;;;3.40;;
13425;SDS011;6785;57.918;12.530;2024-02-26T04:16:36;3.70;;;2.90;;
13425;SDS011;6785;57.918;12.530;2024-02-26T04:19:03;3.97;;;3.00;;
13425;SDS011;6785;57.918;12.530;2024-02-26T04:21:32;5.87;;;3.47;;
13425;SDS011;6785;57.918;12.530;2024-02-26T04:23:59;5.70;;;3.00;;
13425;SDS011;6785;57.918;12.530;2024-02-26T04:26:27;4.90;;;3.23;;
13425;SDS011;6785;57.918;12.530;2024-02-26T04:28:54;3.20;;;2.87;;
13425;SDS011;6785;57.918;12.530;2024-02-26T04:31:21;3.90;;;3.20;;
13425;SDS011;6785;57.918;12.530;2024-02-26T04:33:48;3.53;;;3.07;;
13425;SDS011;6785;57.918;12.530;2024-02-26T04:36:14;3.40;;;2.90;;
13425;SDS011;6785;57.918;12.530;2024-02-26T04:38:43;4.60;;;3.27;;
13425;SDS011;6785;57.918;12.530;2024-02-26T04:41:10;4.27;;;3.13;;
13425;SDS011;6785;57.918;12.530;2024-02-26T04:43:37;3.17;;;2.87;;
13425;SDS011;6785;57.918;12.530;2024-02-26T04:46:06;5.10;;;3.30;;
13425;SDS011;6785;57.918;12.530;2024-02-26T04:48:33;4.00;;;3.33;;
13425;SDS011;6785;57.918;12.530;2024-02-26T04:51:00;4.80;;;3.30;;
13425;SDS011;6785;57.918;12.530;2024-02-26T04:53:27;3.43;;;2.90;;
13425;SDS011;6785;57.918;12.530;2024-02-26T04:55:55;5.20;;;3.40;;
13425;SDS011;6785;57.918;12.530;2024-02-26T04:58:22;4.70;;;3.87;;
13425;SDS011;6785;57.918;12.530;2024-02-26T05:00:49;3.23;;;2.87;;
13425;SDS011;6785;57.918;12.530;2024-02-26T05:03:16;3.40;;;3.07;;
13425;SDS011;6785;57.918;12.530;2024-02-26T05:05:43;3.80;;;3.03;;
13425;SDS011;6785;57.918;12.530;2024-02-26T05:08:10;5.23;;;2.90;;
13425;SDS011;6785;57.918;12.530;2024-02-26T05:10:37;5.23;;;2.83;;
13425;SDS011;6785;57.918;12.530;2024-02-26T05:13:07;4.17;;;3.17;;
13425;SDS011;6785;57.918;12.530;2024-02-26T05:15:34;3.70;;;3.07;;
13425;SDS011;6785;57.918;12.530;2024-02-26T05:18:01;4.67;;;3.40;;
13425;SDS011;6785;57.918;12.530;2024-02-26T05:20:28;6.53;;;4.50;;
13425;SDS011;6785;57.918;12.530;2024-02-26T05:22:54;7.40;;;3.83;;
13425;SDS011;6785;57.918;12.530;2024-02-26T05:25:23;8.10;;;4.43;;
13425;SDS011;6785;57.918;12.530;2024-02-26T05:27:50;7.53;;;4.53;;
13425;SDS011;6785;57.918;12.530;2024-02-26T05:30:19;6.03;;;4.33;;
13425;SDS011;6785;57.918;12.530;2024-02-26T05:32:46;5.63;;;4.40;;
13425;SDS011;6785;57.918;12.530;2024-02-26T05:35:13;5.80;;;3.77;;
13425;SDS011;6785;57.918;12.530;2024-02-26T05:37:40;5.93;;;4.20;;
13425;SDS011;6785;57.918;12.530;2024-02-26T05:40:07;6.40;;;4.43;;
13425;SDS011;6785;57.918;12.530;2024-02-26T05:42:34;5.83;;;4.20;;
13425;SDS011;6785;57.918;12.530;2024-02-26T05:45:01;6.40;;;3.77;;
13425;SDS011;6785;57.918;12.530;2024-02-26T05:47:32;4.67;;;3.97;;
13425;SDS011;6785;57.918;12.530;2024-02-26T05:49:59;5.43;;;3.70;;
13425;SDS011;6785;57.918;12.530;2024-02-26T05:52:26;5.73;;;4.43;;
13425;SDS011;6785;57.918;12.530;2024-02-26T05:54:53;7.60;;;3.60;;
13425;SDS011;6785;57.918;12.530;2024-02-26T05:57:19;5.23;;;3.80;;
13425;SDS011;6785;57.918;12.530;2024-02-26T05:59:46;5.00;;;4.00;;
13425;SDS011;6785;57.918;12.530;2024-02-26T06:02:13;7.27;;;3.87;;
13425;SDS011;6785;57.918;12.530;2024-02-26T06:04:41;5.03;;;4.00;;
13425;SDS011;6785;57.918;12.530;2024-02-26T06:07:08;5.80;;;4.47;;
13425;SDS011;6785;57.918;12.530;2024-02-26T06:09:35;4.33;;;3.60;;
13425;SDS011;6785;57.918;12.530;2024-02-26T06:12:02;5.53;;;3.67;;
13425;SDS011;6785;57.918;12.530;2024-02-26T06:14:29;4.63;;;3.77;;
13425;SDS011;6785;57.918;12.530;2024-02-26T06:16:56;4.33;;;3.70;;
13425;SDS011;6785;57.918;12.530;2024-02-26T06:19:23;5.97;;;3.90;;
13425;SDS011;6785;57.918;12.530;2024-02-26T06:21:52;6.53;;;4.20;;
13425;SDS011;6785;57.918;12.530;2024-02-26T06:24:19;7.00;;;5.13;;
13425;SDS011;6785;57.918;12.530;2024-02-26T06:26:47;7.63;;;4.20;;
13425;SDS011;6785;57.918;12.530;2024-02-26T06:29:14;4.73;;;3.27;;
13425;SDS011;6785;57.918;12.530;2024-02-26T06:31:41;4.83;;;3.87;;
13425;SDS011;6785;57.918;12.530;2024-02-26T06:34:09;5.87;;;4.07;;
13425;SDS011;6785;57.918;12.530;2024-02-26T06:36:36;5.53;;;3.57;;
13425;SDS011;6785;57.918;12.530;2024-02-26T06:39:04;7.50;;;3.97;;
13425;SDS011;6785;57.918;12.530;2024-02-26T06:41:31;5.43;;;3.80;;
13425;SDS011;6785;57.918;12.530;2024-02-26T06:43:58;4.00;;;3.57;;
13425;SDS011;6785;57.918;12.530;2024-02-26T06:46:25;5.13;;;3.67;;
13425;SDS011;6785;57.918;12.530;2024-02-26T06:48:54;5.60;;;3.63;;
13425;SDS011;6785;57.918;12.530;2024-02-26T06:51:20;4.93;;;3.40;;
13425;SDS011;6785;57.918;12.530;2024-02-26T06:53:47;5.70;;;3.90;;
13425;SDS011;6785;57.918;12.530;2024-02-26T06:56:16;3.83;;;3.33;;
13425;SDS011;6785;57.918;12.530;2024-02-26T06:58:43;5.80;;;4.00;;
13425;SDS011;6785;57.918;12.530;2024-02-26T07:01:11;5.73;;;3.93;;
13425;SDS011;6785;57.918;12.530;2024-02-26T07:03:39;4.50;;;3.63;;
13425;SDS011;6785;57.918;12.530;2024-02-26T07:06:06;6.90;;;3.63;;
13425;SDS011;6785;57.918;12.530;2024-02-26T07:08:34;4.47;;;3.43;;
13425;SDS011;6785;57.918;12.530;2024-02-26T07:11:01;6.33;;;3.83;;
13425;SDS011;6785;57.918;12.530;2024-02-26T07:13:30;3.93;;;3.43;;
13425;SDS011;6785;57.918;12.530;2024-02-26T07:15:56;4.73;;;3.73;;
13425;SDS011;6785;57.918;12.530;2024-02-26T07:18:23;4.93;;;3.17;;
13425;SDS011;6785;57.918;12.530;2024-02-26T07:20:50;5.83;;;3.60;;
13425;SDS011;6785;57.918;12.530;2024-02-26T07:23:17;5.40;;;3.80;;
13425;SDS011;6785;57.918;12.530;2024-02-26T07:25:43;6.27;;;3.50;;
13425;SDS011;6785;57.918;12.530;2024-02-26T07:28:12;4.17;;;3.77;;
13425;SDS011;6785;57.918;12.530;2024-02-26T07:30:40;4.13;;;3.70;;
13425;SDS011;6785;57.918;12.530;2024-02-26T07:33:07;7.07;;;3.97;;
13425;SDS011;6785;57.918;12.530;2024-02-26T07:35:34;3.97;;;3.33;;
13425;SDS011;6785;57.918;12.530;2024-02-26T07:38:01;6.37;;;4.43;;
13425;SDS011;6785;57.918;12.530;2024-02-26T07:40:28;4.57;;;3.77;;
13425;SDS011;6785;57.918;12.530;2024-02-26T07:42:56;5.60;;;4.50;;
13425;SDS011;6785;57.918;12.530;2024-02-26T07:45:22;5.13;;;4.30;;
13425;SDS011;6785;57.918;12.530;2024-02-26T07:47:51;7.10;;;4.90;;
13425;SDS011;6785;57.918;12.530;2024-02-26T07:50:17;6.23;;;4.63;;
13425;SDS011;6785;57.918;12.530;2024-02-26T07:52:44;8.30;;;5.90;;
13425;SDS011;6785;57.918;12.530;2024-02-26T07:55:11;7.90;;;5.43;;
13425;SDS011;6785;57.918;12.530;2024-02-26T07:57:41;6.20;;;4.63;;
13425;SDS011;6785;57.918;12.530;2024-02-26T08:00:09;7.07;;;5.80;;
13425;SDS011;6785;57.918;12.530;2024-02-26T08:02:37;9.27;;;5.47;;
13425;SDS011;6785;57.918;12.530;2024-02-26T08:05:05;6.37;;;5.33;;
13425;SDS011;6785;57.918;12.530;2024-02-26T08:07:32;11.43;;;5.17;;
13425;SDS011;6785;57.918;12.530;2024-02-26T08:09:59;5.87;;;4.80;;
13425;SDS011;6785;57.918;12.530;2024-02-26T08:12:26;6.73;;;4.30;;
13425;SDS011;6785;57.918;12.530;2024-02-26T08:14:53;5.00;;;4.30;;
13425;SDS011;6785;57.918;12.530;2024-02-26T08:17:20;6.70;;;4.00;;
13425;SDS011;6785;57.918;12.530;2024-02-26T08:19:47;4.73;;;3.93;;
13425;SDS011;6785;57.918;12.530;2024-02-26T08:22:15;5.50;;;4.07;;
13425;SDS011;6785;57.918;12.530;2024-02-26T08:24:42;7.83;;;4.17;;
13425;SDS011;6785;57.918;12.530;2024-02-26T08:27:09;6.03;;;3.93;;
13425;SDS011;6785;57.918;12.530;2024-02-26T08:29:36;5.77;;;4.10;;
13425;SDS011;6785;57.918;12.530;2024-02-26T08:32:03;8.47;;;5.20;;
13425;SDS011;6785;57.918;12.530;2024-02-26T08:34:32;5.33;;;3.87;;
13425;SDS011;6785;57.918;12.530;2024-02-26T08:36:58;5.53;;;3.67;;
13425;SDS011;6785;57.918;12.530;2024-02-26T08:39:26;4.40;;;3.63;;
13425;SDS011;6785;57.918;12.530;2024-02-26T08:41:53;4.50;;;3.63;;
13425;SDS011;6785;57.918;12.530;2024-02-26T08:44:20;4.17;;;3.70;;
13425;SDS011;6785;57.918;12.530;2024-02-26T08:46:47;4.43;;;3.93;;
13425;SDS011;6785;57.918;12.530;2024-02-26T08:49:16;5.03;;;3.63;;
13425;SDS011;6785;57.918;12.530;2024-02-26T08:51:43;6.23;;;3.83;;
13425;SDS011;6785;57.918;12.530;2024-02-26T08:54:10;4.57;;;3.67;;
13425;SDS011;6785;57.918;12.530;2024-02-26T08:56:39;5.77;;;4.03;;
13425;SDS011;6785;57.918;12.530;2024-02-26T08:59:05;4.90;;;3.40;;
13425;SDS011;6785;57.918;12.530;2024-02-26T09:01:32;4.10;;;3.30;;
13425;SDS011;6785;57.918;12.530;2024-02-26T09:04:00;4.10;;;3.70;;
13425;SDS011;6785;57.918;12.530;2024-02-26T09:06:27;4.20;;;3.70;;
13425;SDS011;6785;57.918;12.530;2024-02-26T09:08:54;5.57;;;3.90;;
13425;SDS011;6785;57.918;12.530;2024-02-26T09:11:21;7.13;;;3.70;;
13425;SDS011;6785;57.918;12.530;2024-02-26T09:13:49;5.50;;;3.77;;
13425;SDS011;6785;57.918;12.530;2024-02-26T09:16:16;4.60;;;4.10;;
13425;SDS011;6785;57.918;12.530;2024-02-26T09:18:43;6.97;;;4.10;;
13425;SDS011;6785;57.918;12.530;2024-02-26T09:21:12;4.20;;;3.80;;
13425;SDS011;6785;57.918;12.530;2024-02-26T09:23:39;5.73;;;3.90;;
13425;SDS011;6785;57.918;12.530;2024-02-26T09:26:06;5.03;;;3.97;;
13425;SDS011;6785;57.918;12.530;2024-02-26T09:28:32;4.90;;;4.10;;
13425;SDS011;6785;57.918;12.530;2024-02-26T09:31:03;5.20;;;4.20;;
13425;SDS011;6785;57.918;12.530;2024-02-26T09:33:31;4.27;;;3.63;;
13425;SDS011;6785;57.918;12.530;2024-02-26T09:35:58;4.73;;;4.03;;
13425;SDS011;6785;57.918;12.530;2024-02-26T09:38:25;4.30;;;3.90;;
13425;SDS011;6785;57.918;12.530;2024-02-26T09:40:53;7.90;;;4.20;;
13425;SDS011;6785;57.918;12.530;2024-02-26T09:43:21;4.97;;;4.03;;
13425;SDS011;6785;57.918;12.530;2024-02-26T09:45:49;4.80;;;3.60;;
13425;SDS011;6785;57.918;12.530;2024-02-26T09:48:18;5.37;;;3.90;;
13425;SDS011;6785;57.918;12.530;2024-02-26T09:50:46;5.27;;;3.63;;
13425;SDS011;6785;57.918;12.530;2024-02-26T09:53:13;5.13;;;3.47;;
13425;SDS011;6785;57.918;12.530;2024-02-26T09:55:40;3.87;;;3.33;;
13425;SDS011;6785;57.918;12.530;2024-02-26T09:58:08;4.57;;;3.70;;
13425;SDS011;6785;57.918;12.530;2024-02-26T10:00:42;5.17;;;3.57;;
13425;SDS011;6785;57.918;12.530;2024-02-26T10:03:13;5.83;;;3.57;;
13425;SDS011;6785;57.918;12.530;2024-02-26T10:05:44;5.90;;;4.00;;
13425;SDS011;6785;57.918;12.530;2024-02-26T10:08:11;5.77;;;3.60;;
13425;SDS011;6785;57.918;12.530;2024-02-26T10:10:38;4.90;;;3.80;;
13425;SDS011;6785;57.918;12.530;2024-02-26T10:13:05;5.77;;;3.73;;
13425;SDS011;6785;57.918;12.530;2024-02-26T10:15:35;5.53;;;4.37;;
13425;SDS011;6785;57.918;12.530;2024-02-26T10:18:03;4.43;;;3.70;;
13425;SDS011;6785;57.918;12.530;2024-02-26T10:20:30;4.53;;;4.07;;
13425;SDS011;6785;57.918;12.530;2024-02-26T10:23:00;4.90;;;4.13;;
13425;SDS011;6785;57.918;12.530;2024-02-26T10:25:30;6.33;;;4.30;;
13425;SDS011;6785;57.918;12.530;2024-02-26T10:27:58;6.17;;;4.47;;
13425;SDS011;6785;57.918;12.530;2024-02-26T10:30:28;5.77;;;4.87;;
13425;SDS011;6785;57.918;12.530;2024-02-26T10:32:55;6.93;;;5.53;;
13425;SDS011;6785;57.918;12.530;2024-02-26T10:35:23;7.70;;;5.90;;
13425;SDS011;6785;57.918;12.530;2024-02-26T10:37:51;7.73;;;6.00;;
13425;SDS011;6785;57.918;12.530;2024-02-26T10:40:20;6.83;;;5.97;;
13425;SDS011;6785;57.918;12.530;2024-02-26T10:42:47;14.90;;;7.43;;
13425;SDS011;6785;57.918;12.530;2024-02-26T10:45:14;8.77;;;6.53;;
13425;SDS011;6785;57.918;12.530;2024-02-26T10:47:41;9.50;;;6.30;;
13425;SDS011;6785;57.918;12.530;2024-02-26T10:50:08;8.77;;;6.33;;
13425;SDS011;6785;57.918;12.530;2024-02-26T10:52:36;8.63;;;6.67;;
13425;SDS011;6785;57.918;12.530;2024-02-26T10:55:04;7.13;;;5.87;;
13425;SDS011;6785;57.918;12.530;2024-02-26T10:57:34;8.17;;;5.87;;
13425;SDS011;6785;57.918;12.530;2024-02-26T11:00:05;7.93;;;6.27;;
13425;SDS011;6785;57.918;12.530;2024-02-26T11:02:35;9.80;;;5.90;;
13425;SDS011;6785;57.918;12.530;2024-02-26T11:05:02;8.03;;;6.20;;
13425;SDS011;6785;57.918;12.530;2024-02-26T11:07:30;6.87;;;5.87;;
13425;SDS011;6785;57.918;12.530;2024-02-26T11:09:57;12.37;;;6.20;;
13425;SDS011;6785;57.918;12.530;2024-02-26T11:12:26;7.93;;;6.00;;
13425;SDS011;6785;57.918;12.530;2024-02-26T11:14:56;10.73;;;6.77;;
13425;SDS011;6785;57.918;12.530;2024-02-26T11:17:23;7.50;;;6.17;;
13425;SDS011;6785;57.918;12.530;2024-02-26T11:19:53;6.73;;;5.27;;
13425;SDS011;6785;57.918;12.530;2024-02-26T11:22:22;6.07;;;5.00;;
13425;SDS011;6785;57.918;12.530;2024-02-26T11:24:51;8.20;;;5.60;;
13425;SDS011;6785;57.918;12.530;2024-02-26T11:27:19;6.77;;;5.53;;
13425;SDS011;6785;57.918;12.530;2024-02-26T11:29:56;8.50;;;5.80;;
13425;SDS011;6785;57.918;12.530;2024-02-26T11:32:26;6.93;;;5.67;;
13425;SDS011;6785;57.918;12.530;2024-02-26T11:34:55;9.43;;;6.33;;
13425;SDS011;6785;57.918;12.530;2024-02-26T11:37:22;8.37;;;6.27;;
13425;SDS011;6785;57.918;12.530;2024-02-26T11:39:50;7.47;;;5.37;;
13425;SDS011;6785;57.918;12.530;2024-02-26T11:42:22;7.50;;;5.93;;
13425;SDS011;6785;57.918;12.530;2024-02-26T11:44:50;5.83;;;4.80;;
13425;SDS011;6785;57.918;12.530;2024-02-26T11:47:19;5.57;;;4.80;;
13425;SDS011;6785;57.918;12.530;2024-02-26T11:49:48;6.13;;;4.70;;
13425;SDS011;6785;57.918;12.530;2024-02-26T11:52:15;6.87;;;5.23;;
13425;SDS011;6785;57.918;12.530;2024-02-26T11:54:46;5.43;;;4.90;;
13425;SDS011;6785;57.918;12.530;2024-02-26T11:57:24;7.67;;;4.80;;
13425;SDS011;6785;57.918;12.530;2024-02-26T11:59:52;7.07;;;5.70;;
13425;SDS011;6785;57.918;12.530;2024-02-26T12:02:41;6.33;;;4.93;;
13425;SDS011;6785;57.918;12.530;2024-02-26T12:05:11;5.87;;;4.60;;
13425;SDS011;6785;57.918;12.530;2024-02-26T12:07:41;6.63;;;4.70;;
13425;SDS011;6785;57.918;12.530;2024-02-26T12:10:14;6.73;;;4.87;;
13425;SDS011;6785;57.918;12.530;2024-02-26T12:12:46;8.20;;;5.77;;
13425;SDS011;6785;57.918;12.530;2024-02-26T12:15:14;6.90;;;4.93;;
13425;SDS011;6785;57.918;12.530;2024-02-26T12:17:48;9.63;;;6.07;;
13425;SDS011;6785;57.918;12.530;2024-02-26T12:20:16;6.93;;;5.77;;
13425;SDS011;6785;57.918;12.530;2024-02-26T12:22:45;6.13;;;5.53;;
13425;SDS011;6785;57.918;12.530;2024-02-26T12:25:13;6.50;;;5.63;;
13425;SDS011;6785;57.918;12.530;2024-02-26T12:27:40;10.50;;;6.00;;
13425;SDS011;6785;57.918;12.530;2024-02-26T12:30:07;7.13;;;5.97;;
13425;SDS011;6785;57.918;12.530;2024-02-26T12:32:35;8.70;;;6.40;;
13425;SDS011;6785;57.918;12.530;2024-02-26T12:35:04;6.77;;;5.60;;
13425;SDS011;6785;57.918;12.530;2024-02-26T12:37:32;7.97;;;5.73;;
13425;SDS011;6785;57.918;12.530;2024-02-26T12:40:01;7.70;;;5.37;;
13425;SDS011;6785;57.918;12.530;2024-02-26T12:42:29;7.00;;;5.57;;
13425;SDS011;6785;57.918;12.530;2024-02-26T12:44:57;6.20;;;5.10;;
13425;SDS011;6785;57.918;12.530;2024-02-26T12:47:24;5.33;;;4.80;;
13425;SDS011;6785;57.918;12.530;2024-02-26T12:49:51;5.73;;;4.93;;
13425;SDS011;6785;57.918;12.530;2024-02-26T12:52:19;5.13;;;4.63;;
13425;SDS011;6785;57.918;12.530;2024-02-26T12:54:46;7.43;;;5.03;;
13425;SDS011;6785;57.918;12.530;2024-02-26T12:57:15;7.30;;;4.33;;
13425;SDS011;6785;57.918;12.530;2024-02-26T12:59:42;5.00;;;4.50;;
13425;SDS011;6785;57.918;12.530;2024-02-26T13:02:09;4.83;;;4.33;;
13425;SDS011;6785;57.918;12.530;2024-02-26T13:04:37;5.50;;;4.40;;
13425;SDS011;6785;57.918;12.530;2024-02-26T13:07:05;4.33;;;3.87;;
13425;SDS011;6785;57.918;12.530;2024-02-26T13:09:34;5.37;;;4.60;;
13425;SDS011;6785;57.918;12.530;2024-02-26T13:12:03;5.90;;;4.77;;
13425;SDS011;6785;57.918;12.530;2024-02-26T13:14:30;5.13;;;4.33;;
13425;SDS011;6785;57.918;12.530;2024-02-26T13:16:59;6.43;;;4.93;;
13425;SDS011;6785;57.918;12.530;2024-02-26T13:19:26;6.23;;;5.33;;
13425;SDS011;6785;57.918;12.530;2024-02-26T13:21:53;7.27;;;5.30;;
13425;SDS011;6785;57.918;12.530;2024-02-26T13:24:21;6.30;;;4.90;;
13425;SDS011;6785;57.918;12.530;2024-02-26T13:26:55;8.30;;;5.77;;
13425;SDS011;6785;57.918;12.530;2024-02-26T13:29:22;5.70;;;4.83;;
13425;SDS011;6785;57.918;12.530;2024-02-26T13:31:53;6.13;;;5.27;;
13425;SDS011;6785;57.918;12.530;2024-02-26T13:34:24;6.67;;;5.30;;
13425;SDS011;6785;57.918;12.530;2024-02-26T13:36:51;6.83;;;5.23;;
13425;SDS011;6785;57.918;12.530;2024-02-26T13:39:22;7.73;;;5.67;;
13425;SDS011;6785;57.918;12.530;2024-02-26T13:41:50;9.33;;;6.07;;
13425;SDS011;6785;57.918;12.530;2024-02-26T13:44:18;7.00;;;5.63;;
13425;SDS011;6785;57.918;12.530;2024-02-26T13:46:45;7.40;;;5.93;;
13425;SDS011;6785;57.918;12.530;2024-02-26T13:49:12;7.33;;;5.57;;
13425;SDS011;6785;57.918;12.530;2024-02-26T13:51:39;6.07;;;5.30;;
13425;SDS011;6785;57.918;12.530;2024-02-26T13:54:06;5.70;;;5.10;;
13425;SDS011;6785;57.918;12.530;2024-02-26T13:56:34;8.33;;;5.97;;
13425;SDS011;6785;57.918;12.530;2024-02-26T13:59:01;8.80;;;6.07;;
13425;SDS011;6785;57.918;12.530;2024-02-26T14:01:30;6.03;;;5.30;;
13425;SDS011;6785;57.918;12.530;2024-02-26T14:03:58;7.37;;;6.00;;
13425;SDS011;6785;57.918;12.530;2024-02-26T14:09:07;9.10;;;5.90;;
13425;SDS011;6785;57.918;12.530;2024-02-26T14:11:35;7.27;;;6.43;;
13425;SDS011;6785;57.918;12.530;2024-02-26T14:14:02;8.53;;;6.67;;
13425;SDS011;6785;57.918;12.530;2024-02-26T14:16:31;12.47;;;6.43;;
13425;SDS011;6785;57.918;12.530;2024-02-26T14:18:58;9.10;;;6.53;;
13425;SDS011;6785;57.918;12.530;2024-02-26T14:21:25;7.60;;;6.40;;
13425;SDS011;6785;57.918;12.530;2024-02-26T14:23:52;7.30;;;6.27;;
13425;SDS011;6785;57.918;12.530;2024-02-26T14:26:19;8.20;;;6.30;;
13425;SDS011;6785;57.918;12.530;2024-02-26T14:28:46;7.13;;;6.23;;
13425;SDS011;6785;57.918;12.530;2024-02-26T14:31:13;8.33;;;6.33;;
13425;SDS011;6785;57.918;12.530;2024-02-26T14:33:44;9.00;;;6.67;;
13425;SDS011;6785;57.918;12.530;2024-02-26T14:36:11;11.10;;;6.83;;
13425;SDS011;6785;57.918;12.530;2024-02-26T14:38:38;11.90;;;7.37;;
13425;SDS011;6785;57.918;12.530;2024-02-26T14:41:05;8.97;;;6.30;;
13425;SDS011;6785;57.918;12.530;2024-02-26T14:43:32;8.70;;;6.63;;
13425;SDS011;6785;57.918;12.530;2024-02-26T14:46:00;10.57;;;7.73;;
13425;SDS011;6785;57.918;12.530;2024-02-26T14:48:27;13.30;;;8.10;;
13425;SDS011;6785;57.918;12.530;2024-02-26T14:50:56;12.13;;;8.23;;
13425;SDS011;6785;57.918;12.530;2024-02-26T14:53:24;11.43;;;8.40;;